createdAt,value
2022-12-01T00:01:12.685Z,5.30
2022-12-01T00:03:39.697Z,5.20
2022-12-01T00:06:07.954Z,5.20
2022-12-01T00:08:34.864Z,5.30
2022-12-01T00:11:06.214Z,5.20
2022-12-01T00:13:33.533Z,5.20
2022-12-01T00:16:10.564Z,5.20
2022-12-01T00:18:37.537Z,5.10
2022-12-01T00:21:04.374Z,5.00
2022-12-01T00:23:31.821Z,5.00
2022-12-01T00:26:05.298Z,4.90
2022-12-01T00:28:33.516Z,4.90
2022-12-01T00:31:00.324Z,4.90
2022-12-01T00:33:27.125Z,4.90
2022-12-01T00:36:00.547Z,4.80
2022-12-01T00:38:27.541Z,4.70
2022-12-01T00:40:54.441Z,4.70
2022-12-01T00:43:21.244Z,4.70
2022-12-01T00:45:48.154Z,4.70
2022-12-01T00:48:15.037Z,4.70
2022-12-01T00:50:41.865Z,4.60
2022-12-01T00:53:08.757Z,4.60
2022-12-01T00:55:35.611Z,4.60
2022-12-01T00:58:02.385Z,4.60
2022-12-01T01:00:29.201Z,4.60
2022-12-01T01:02:56.131Z,4.50
2022-12-01T01:05:23.467Z,4.50
2022-12-01T01:07:50.326Z,4.50
2022-12-01T01:10:17.318Z,4.60
2022-12-01T01:12:44.102Z,4.70
2022-12-01T01:15:11.686Z,4.80
2022-12-01T01:17:39.560Z,4.80
2022-12-01T01:20:07.046Z,4.90
2022-12-01T01:22:35.196Z,4.90
2022-12-01T01:25:01.966Z,5.00
2022-12-01T01:27:28.731Z,5.00
2022-12-01T01:29:55.593Z,5.00
2022-12-01T01:32:22.362Z,5.00
2022-12-01T01:34:49.155Z,5.10
2022-12-01T01:37:15.953Z,5.10
2022-12-01T01:39:42.740Z,5.20
2022-12-01T01:42:14.739Z,5.20
2022-12-01T01:44:54.225Z,5.20
2022-12-01T01:47:25.322Z,5.30
2022-12-01T01:49:52.524Z,5.30
2022-12-01T01:52:19.309Z,5.30
2022-12-01T01:54:48.008Z,5.40
2022-12-01T01:57:17.133Z,5.40
2022-12-01T01:59:46.222Z,5.40
2022-12-01T02:02:13.322Z,5.40
2022-12-01T02:04:42.330Z,5.40
2022-12-01T02:07:09.485Z,5.40
2022-12-01T02:09:36.612Z,5.50
2022-12-01T02:12:15.445Z,5.40
2022-12-01T02:15:03.011Z,5.40
2022-12-01T02:17:31.361Z,5.50
2022-12-01T02:20:46.975Z,5.50
2022-12-01T02:23:39.060Z,5.50
2022-12-01T02:26:24.290Z,5.50
2022-12-01T02:29:06.106Z,5.50
2022-12-01T02:31:51.413Z,5.60
2022-12-01T02:34:30.403Z,5.60
2022-12-01T02:37:25.086Z,5.50
2022-12-01T02:40:17.064Z,5.50
2022-12-01T02:43:12.121Z,5.50
2022-12-01T02:46:10.570Z,5.50
2022-12-01T02:48:43.051Z,5.50
2022-12-01T02:51:25.742Z,5.40
2022-12-01T02:53:52.561Z,5.40
2022-12-01T02:56:21.097Z,5.30
2022-12-01T02:58:47.893Z,5.30
2022-12-01T03:01:18.275Z,5.40
2022-12-01T03:04:10.949Z,5.40
2022-12-01T03:06:52.505Z,5.40
2022-12-01T03:09:43.628Z,5.40
2022-12-01T03:12:19.465Z,5.40
2022-12-01T03:14:54.029Z,5.40
2022-12-01T03:17:24.310Z,5.40
2022-12-01T03:19:55.823Z,5.40
2022-12-01T03:22:33.882Z,5.40
2022-12-01T03:25:00.704Z,5.40
2022-12-01T03:27:28.921Z,5.40
2022-12-01T03:29:56.996Z,5.40
2022-12-01T03:32:25.011Z,5.30
2022-12-01T03:34:57.501Z,5.30
2022-12-01T03:37:26.084Z,5.30
2022-12-01T03:39:59.933Z,5.30
2022-12-01T03:42:50.336Z,5.30
2022-12-01T03:45:24.668Z,5.30
2022-12-01T03:47:51.821Z,5.30
2022-12-01T03:50:19.037Z,5.30
2022-12-01T03:53:06.911Z,5.40
2022-12-01T03:55:37.960Z,5.40
2022-12-01T03:58:11.609Z,5.50
2022-12-01T04:00:38.445Z,5.60
2022-12-01T04:03:05.397Z,5.60
2022-12-01T04:05:33.519Z,5.70
2022-12-01T04:08:00.766Z,5.70
2022-12-01T04:10:27.669Z,5.70
2022-12-01T04:12:59.247Z,5.70
2022-12-01T04:15:26.264Z,5.60
2022-12-01T04:17:53.204Z,5.60
2022-12-01T04:20:20.207Z,5.50
2022-12-01T04:22:47.374Z,5.40
2022-12-01T04:25:14.178Z,5.40
2022-12-01T04:27:41.032Z,5.40
2022-12-01T04:30:08.365Z,5.30
2022-12-01T04:32:42.342Z,5.30
2022-12-01T04:35:10.190Z,5.20
2022-12-01T04:37:37.218Z,5.20
2022-12-01T04:40:05.788Z,5.10
2022-12-01T04:42:32.597Z,5.10
2022-12-01T04:44:59.401Z,5.00
2022-12-01T04:47:26.229Z,5.00
2022-12-01T04:49:53.201Z,4.90
2022-12-01T04:52:20.012Z,4.90
2022-12-01T04:54:46.927Z,4.80
2022-12-01T04:57:13.728Z,4.80
2022-12-01T04:59:40.562Z,4.70
2022-12-01T05:02:07.662Z,4.70
2022-12-01T05:04:38.489Z,4.60
2022-12-01T05:07:05.525Z,4.60
2022-12-01T05:09:32.395Z,4.60
2022-12-01T05:11:59.166Z,4.60
2022-12-01T05:14:26.025Z,4.50
2022-12-01T05:16:54.456Z,4.50
2022-12-01T05:19:39.677Z,4.50
2022-12-01T05:22:06.480Z,4.50
2022-12-01T05:24:33.257Z,4.40
2022-12-01T05:27:00.122Z,4.30
2022-12-01T05:29:26.919Z,4.30
2022-12-01T05:31:53.782Z,4.30
2022-12-01T05:34:20.686Z,4.30
2022-12-01T05:36:47.432Z,4.30
2022-12-01T05:39:14.352Z,4.30
2022-12-01T05:41:41.152Z,4.30
2022-12-01T05:44:07.904Z,4.20
2022-12-01T05:46:34.713Z,4.20
2022-12-01T05:49:01.486Z,4.20
2022-12-01T05:51:28.253Z,4.20
2022-12-01T05:53:55.261Z,4.10
2022-12-01T05:56:22.219Z,4.10
2022-12-01T05:58:48.995Z,4.00
2022-12-01T06:01:15.982Z,4.00
2022-12-01T06:03:42.892Z,3.90
2022-12-01T06:06:09.793Z,4.00
2022-12-01T06:08:36.642Z,3.90
2022-12-01T06:11:03.428Z,3.90
2022-12-01T06:13:30.253Z,3.90
2022-12-01T06:16:00.676Z,3.90
2022-12-01T06:18:27.764Z,3.90
2022-12-01T06:20:54.544Z,3.80
2022-12-01T06:23:22.695Z,3.80
2022-12-01T06:25:51.055Z,3.80
2022-12-01T06:28:17.868Z,3.90
2022-12-01T06:30:44.756Z,3.80
2022-12-01T06:33:11.684Z,3.80
2022-12-01T06:35:38.576Z,3.80
2022-12-01T06:38:05.522Z,3.80
2022-12-01T06:40:32.494Z,3.80
2022-12-01T06:43:05.094Z,3.80
2022-12-01T06:45:31.946Z,3.90
2022-12-01T06:47:59.833Z,3.90
2022-12-01T06:50:26.712Z,3.90
2022-12-01T06:52:53.923Z,3.90
2022-12-01T06:55:20.748Z,3.90
2022-12-01T06:57:47.812Z,4.00
2022-12-01T07:00:15.433Z,4.10
2022-12-01T07:02:42.444Z,4.10
2022-12-01T07:05:10.678Z,4.20
2022-12-01T07:07:38.731Z,4.20
2022-12-01T07:10:06.406Z,4.30
2022-12-01T07:12:33.224Z,4.30
2022-12-01T07:15:00.116Z,4.40
2022-12-01T07:17:26.923Z,4.40
2022-12-01T07:19:53.700Z,4.50
2022-12-01T07:22:20.529Z,4.50
2022-12-01T07:24:47.330Z,4.70
2022-12-01T07:27:14.233Z,4.70
2022-12-01T07:29:41.097Z,4.70
2022-12-01T07:32:07.940Z,4.80
2022-12-01T07:34:36.776Z,4.90
2022-12-01T07:37:03.614Z,5.00
2022-12-01T07:39:30.420Z,5.10
2022-12-01T07:41:57.238Z,5.10
2022-12-01T07:44:24.064Z,5.10
2022-12-01T07:46:50.835Z,5.10
2022-12-01T07:49:17.629Z,5.20
2022-12-01T07:51:45.435Z,5.20
2022-12-01T07:54:14.319Z,5.20
2022-12-01T07:56:41.306Z,5.30
2022-12-01T07:59:08.146Z,5.30
2022-12-01T08:01:35.217Z,5.20
2022-12-01T08:04:02.154Z,5.20
2022-12-01T08:06:29.010Z,5.20
2022-12-01T08:08:55.918Z,5.20
2022-12-01T08:11:24.391Z,5.20
2022-12-01T08:13:51.476Z,5.30
2022-12-01T08:16:19.586Z,5.30
2022-12-01T08:18:46.437Z,5.30
2022-12-01T08:21:16.124Z,5.30
2022-12-01T08:23:43.204Z,5.40
2022-12-01T08:26:15.783Z,5.40
2022-12-01T08:28:42.860Z,5.50
2022-12-01T08:31:13.810Z,5.50
2022-12-01T08:33:40.733Z,5.60
2022-12-01T08:36:07.816Z,5.60
2022-12-01T08:38:34.730Z,5.60
2022-12-01T08:41:02.820Z,5.70
2022-12-01T08:43:56.126Z,5.70
2022-12-01T08:46:16.516Z,5.80
2022-12-01T08:48:43.398Z,5.80
2022-12-01T08:51:14.542Z,5.90
2022-12-01T08:53:45.620Z,6.10
2022-12-01T08:56:24.206Z,6.20
2022-12-01T08:58:53.878Z,6.40
2022-12-01T09:01:20.951Z,6.50
2022-12-01T09:03:47.774Z,6.50
2022-12-01T09:06:20.829Z,6.60
2022-12-01T09:08:47.705Z,6.70
2022-12-01T09:11:18.593Z,6.80
2022-12-01T09:13:51.330Z,6.80
2022-12-01T09:16:21.324Z,6.90
2022-12-01T09:18:48.274Z,6.90
2022-12-01T09:21:20.616Z,6.90
2022-12-01T09:23:47.561Z,7.00
2022-12-01T09:26:18.240Z,7.00
2022-12-01T09:28:46.036Z,7.00
2022-12-01T09:31:13.408Z,7.00
2022-12-01T09:33:40.280Z,7.10
2022-12-01T09:36:08.901Z,7.10
2022-12-01T09:38:36.120Z,7.20
2022-12-01T09:41:06.194Z,7.20
2022-12-01T09:43:45.809Z,7.30
2022-12-01T09:46:19.760Z,7.30
2022-12-01T09:48:47.588Z,7.30
2022-12-01T09:51:22.038Z,7.30
2022-12-01T09:53:56.779Z,7.50
2022-12-01T09:56:25.086Z,7.50
2022-12-01T09:58:59.837Z,7.60
2022-12-01T10:01:37.747Z,7.70
2022-12-01T10:04:33.809Z,7.80
2022-12-01T10:07:00.782Z,7.80
2022-12-01T10:09:38.234Z,7.90
2022-12-01T10:12:14.710Z,7.90
2022-12-01T10:14:41.579Z,7.90
2022-12-01T10:17:27.190Z,7.90
2022-12-01T10:20:15.785Z,7.90
2022-12-01T10:23:01.572Z,8.00
2022-12-01T10:25:31.538Z,7.90
2022-12-01T10:28:56.261Z,7.90
2022-12-01T10:31:40.997Z,8.00
2022-12-01T10:34:14.109Z,8.20
2022-12-01T10:36:40.886Z,8.20
2022-12-01T10:39:07.738Z,8.20
2022-12-01T10:41:36.253Z,8.30
2022-12-01T10:44:05.520Z,8.40
2022-12-01T10:46:51.874Z,8.40
2022-12-01T10:49:19.217Z,8.40
2022-12-01T10:51:51.701Z,8.30
2022-12-01T10:54:18.847Z,8.20
2022-12-01T10:56:48.100Z,8.20
2022-12-01T10:59:20.836Z,8.20
2022-12-01T11:01:48.233Z,8.20
2022-12-01T11:04:46.491Z,8.30
2022-12-01T11:07:33.160Z,8.40
2022-12-01T11:10:21.929Z,8.40
2022-12-01T11:12:59.561Z,8.50
2022-12-01T11:15:28.421Z,8.70
2022-12-01T11:18:30.262Z,8.70
2022-12-01T11:21:07.658Z,8.70
2022-12-01T11:23:53.879Z,8.80
2022-12-01T11:26:27.470Z,8.80
2022-12-01T11:29:04.781Z,8.90
2022-12-01T11:31:42.493Z,8.90
2022-12-01T11:34:21.169Z,8.90
2022-12-01T11:36:50.491Z,8.90
2022-12-01T11:39:26.259Z,8.90
2022-12-01T11:41:57.537Z,8.90
2022-12-01T11:50:11.073Z,8.90
2022-12-01T11:52:46.126Z,9.00
2022-12-01T11:55:12.953Z,8.90
2022-12-01T11:57:42.985Z,9.00
2022-12-01T12:00:17.142Z,9.10
2022-12-01T12:03:02.823Z,8.90
2022-12-01T12:05:45.814Z,9.00
2022-12-01T12:08:31.223Z,9.20
2022-12-01T12:11:29.665Z,9.10
2022-12-01T12:13:56.601Z,9.30
2022-12-01T12:16:31.984Z,9.40
2022-12-01T12:19:07.421Z,9.30
2022-12-01T12:21:39.162Z,9.40
2022-12-01T12:24:17.768Z,9.40
2022-12-01T12:27:03.878Z,9.30
2022-12-01T12:29:36.477Z,9.30
2022-12-01T12:32:15.140Z,9.40
2022-12-01T12:34:58.590Z,9.40
2022-12-01T12:37:31.193Z,9.40
2022-12-01T12:40:19.617Z,9.30
2022-12-01T12:43:14.211Z,9.30
2022-12-01T12:46:11.287Z,9.40
2022-12-01T12:49:19.401Z,9.30
2022-12-01T12:52:08.654Z,9.20
2022-12-01T12:54:53.567Z,9.30
2022-12-01T12:57:36.653Z,9.40
2022-12-01T13:00:07.195Z,9.50
2022-12-01T13:02:42.693Z,9.50
2022-12-01T13:05:36.194Z,9.50
2022-12-01T13:08:13.790Z,9.60
2022-12-01T13:10:46.552Z,9.40
2022-12-01T13:13:19.189Z,9.50
2022-12-01T13:15:46.540Z,9.50
2022-12-01T13:18:25.113Z,9.50
2022-12-01T13:20:52.261Z,9.60
2022-12-01T13:23:21.170Z,9.50
2022-12-01T13:25:50.520Z,9.50
2022-12-01T13:28:28.044Z,9.50
2022-12-01T13:31:02.737Z,9.30
2022-12-01T13:33:29.901Z,9.30
2022-12-01T13:36:23.020Z,9.20
2022-12-01T13:38:43.599Z,9.20
2022-12-01T13:41:19.581Z,9.20
2022-12-01T13:44:21.153Z,9.20
2022-12-01T13:46:47.978Z,9.20
2022-12-01T13:49:42.594Z,9.10
2022-12-01T13:52:21.127Z,9.10
2022-12-01T13:55:08.210Z,9.00
2022-12-01T13:57:45.191Z,8.90
2022-12-01T14:00:28.647Z,8.90
2022-12-01T14:03:13.686Z,8.90
2022-12-01T14:05:40.500Z,8.80
2022-12-01T14:08:23.281Z,8.70
2022-12-01T14:10:56.673Z,8.60
2022-12-01T14:13:23.571Z,8.50
2022-12-01T14:16:00.863Z,8.40
2022-12-01T14:18:30.980Z,8.40
2022-12-01T14:20:57.738Z,8.30
2022-12-01T14:23:29.106Z,8.30
2022-12-01T14:26:02.239Z,8.40
2022-12-01T14:28:55.202Z,8.40
2022-12-01T14:31:25.956Z,8.40
2022-12-01T14:33:53.453Z,8.40
2022-12-01T14:36:32.336Z,8.40
2022-12-01T14:38:59.128Z,8.30
2022-12-01T14:41:46.161Z,8.30
2022-12-01T14:44:43.633Z,8.30
2022-12-01T14:47:10.722Z,8.30
2022-12-01T14:49:56.342Z,8.20
2022-12-01T14:52:29.317Z,8.10
2022-12-01T14:54:58.816Z,8.00
2022-12-01T14:57:30.578Z,8.00
2022-12-01T15:00:17.970Z,8.00
2022-12-01T15:02:52.608Z,7.90
2022-12-01T15:05:21.937Z,7.90
2022-12-01T15:07:54.278Z,7.90
2022-12-01T15:10:35.116Z,7.80
2022-12-01T15:13:24.494Z,7.70
2022-12-01T15:15:53.023Z,7.60
2022-12-01T15:18:24.713Z,7.60
2022-12-01T15:20:51.526Z,7.60
2022-12-01T15:23:18.309Z,7.60
2022-12-01T15:25:45.929Z,7.50
2022-12-01T15:33:46.883Z,7.40
2022-12-01T15:37:18.794Z,7.40
2022-12-01T15:43:13.647Z,7.30
2022-12-01T15:48:50.726Z,7.20
2022-12-01T15:54:47.583Z,7.20
2022-12-01T15:57:19.135Z,7.20
2022-12-01T16:00:28.224Z,7.10
2022-12-01T16:02:57.515Z,7.10
2022-12-01T16:05:32.925Z,7.10
2022-12-01T16:09:06.133Z,7.10
2022-12-01T16:14:20.888Z,7.10
2022-12-01T16:20:23.117Z,7.00
2022-12-01T16:26:54.341Z,7.00
2022-12-01T16:32:49.463Z,7.00
2022-12-01T16:38:43.978Z,7.00
2022-12-01T16:45:02.437Z,6.90
2022-12-01T16:51:30.040Z,6.90
2022-12-01T16:57:35.205Z,6.90
2022-12-01T17:03:29.683Z,6.80
2022-12-01T17:07:04.481Z,6.90
2022-12-01T17:11:31.165Z,6.90
2022-12-01T17:17:51.392Z,6.90
2022-12-01T17:23:45.744Z,6.90
2022-12-01T17:29:23.265Z,6.90
2022-12-01T17:35:41.755Z,6.80
2022-12-01T17:42:00.153Z,6.90
2022-12-01T17:47:54.912Z,6.80
2022-12-01T17:53:49.514Z,6.80
2022-12-01T18:00:08.630Z,6.70
2022-12-01T18:06:27.117Z,6.70
2022-12-01T18:12:21.450Z,6.60
2022-12-01T18:18:15.951Z,6.50
2022-12-01T18:24:34.527Z,6.40
2022-12-01T18:30:52.927Z,6.30
2022-12-01T18:36:47.328Z,6.10
2022-12-01T18:42:41.917Z,6.00
2022-12-01T18:49:04.687Z,5.90
2022-12-01T18:55:23.088Z,5.80
2022-12-01T19:01:18.434Z,5.70
2022-12-01T19:07:12.940Z,5.60
2022-12-01T19:13:32.014Z,5.60
2022-12-01T19:19:50.360Z,5.70
2022-12-01T19:25:44.781Z,5.60
2022-12-01T19:31:39.398Z,5.50
2022-12-01T19:37:57.929Z,5.40
2022-12-01T19:44:16.270Z,5.40
2022-12-01T19:50:10.693Z,5.30
2022-12-01T19:56:06.353Z,5.20
2022-12-01T20:02:28.925Z,5.10
2022-12-01T20:08:47.839Z,5.10
2022-12-01T20:14:42.169Z,5.10
2022-12-01T20:20:36.610Z,5.10
2022-12-01T20:26:56.969Z,5.10
2022-12-01T20:33:16.706Z,5.20
2022-12-01T20:39:11.514Z,5.30
2022-12-01T20:45:07.083Z,5.40
2022-12-01T20:51:25.580Z,5.50
2022-12-01T20:57:43.935Z,5.60
2022-12-01T21:03:38.557Z,5.60
2022-12-01T21:09:32.986Z,5.60
2022-12-01T21:15:57.334Z,5.60
2022-12-01T21:22:20.188Z,5.60
2022-12-01T21:28:20.337Z,5.60
2022-12-01T21:34:21.801Z,5.60
2022-12-01T21:40:43.099Z,5.60
2022-12-01T21:47:15.237Z,5.70
2022-12-01T21:53:11.248Z,5.70
2022-12-01T21:59:24.246Z,5.70
2022-12-01T22:06:28.342Z,5.80
2022-12-01T22:12:41.172Z,5.80
2022-12-01T22:18:36.436Z,5.80
2022-12-01T22:24:47.486Z,5.80
2022-12-01T22:31:15.452Z,5.90
2022-12-01T22:37:36.290Z,5.90
2022-12-01T22:43:50.971Z,5.90
2022-12-01T22:49:45.423Z,5.90
2022-12-01T22:56:03.972Z,5.90
2022-12-01T23:02:42.994Z,6.00
2022-12-01T23:08:37.403Z,6.00
2022-12-01T23:14:33.160Z,5.90
2022-12-01T23:20:53.236Z,5.90
2022-12-01T23:27:11.815Z,5.90
2022-12-01T23:33:10.014Z,5.80
2022-12-01T23:39:33.078Z,5.80
2022-12-01T23:45:27.559Z,5.80
2022-12-01T23:51:48.442Z,5.70
2022-12-01T23:58:08.745Z,5.70
